sensor_id;sensor_type;location;lat;lon;timestamp;temperature;humidity
78455;SHT31;67751;51.986;5.696;2024-03-06T00:02:12;8.8;71.9
78455;SHT31;67751;51.986;5.696;2024-03-06T00:04:42;8.8;72.0
78455;SHT31;67751;51.986;5.696;2024-03-06T00:07:12;8.8;72.1
78455;SHT31;67751;51.986;5.696;2024-03-06T00:09:42;8.8;72.1
78455;SHT31;67751;51.986;5.696;2024-03-06T00:12:12;8.8;71.9
78455;SHT31;67751;51.986;5.696;2024-03-06T00:14:41;8.7;71.8
78455;SHT31;67751;51.986;5.696;2024-03-06T00:17:11;8.7;71.7
78455;SHT31;67751;51.986;5.696;2024-03-06T00:19:41;8.7;71.6
78455;SHT31;67751;51.986;5.696;2024-03-06T00:22:11;8.6;71.7
78455;SHT31;67751;51.986;5.696;2024-03-06T00:24:41;8.6;71.8
78455;SHT31;67751;51.986;5.696;2024-03-06T00:27:10;8.6;72.0
78455;SHT31;67751;51.986;5.696;2024-03-06T00:29:40;8.6;72.0
78455;SHT31;67751;51.986;5.696;2024-03-06T00:32:10;8.5;71.7
78455;SHT31;67751;51.986;5.696;2024-03-06T00:34:40;8.5;71.6
78455;SHT31;67751;51.986;5.696;2024-03-06T00:37:10;8.5;72.0
78455;SHT31;67751;51.986;5.696;2024-03-06T00:39:39;8.5;71.4
78455;SHT31;67751;51.986;5.696;2024-03-06T00:42:09;8.5;71.5
78455;SHT31;67751;51.986;5.696;2024-03-06T00:44:41;8.4;71.6
78455;SHT31;67751;51.986;5.696;2024-03-06T00:47:10;8.4;71.6
78455;SHT31;67751;51.986;5.696;2024-03-06T00:49:40;8.4;71.5
78455;SHT31;67751;51.986;5.696;2024-03-06T00:52:10;8.4;71.6
78455;SHT31;67751;51.986;5.696;2024-03-06T00:54:40;8.4;71.3
78455;SHT31;67751;51.986;5.696;2024-03-06T00:57:10;8.3;71.3
78455;SHT31;67751;51.986;5.696;2024-03-06T00:59:39;8.3;71.8
78455;SHT31;67751;51.986;5.696;2024-03-06T01:02:09;8.3;71.9
78455;SHT31;67751;51.986;5.696;2024-03-06T01:04:38;8.3;71.9
78455;SHT31;67751;51.986;5.696;2024-03-06T01:07:08;8.3;72.1
78455;SHT31;67751;51.986;5.696;2024-03-06T01:09:38;8.2;72.0
78455;SHT31;67751;51.986;5.696;2024-03-06T01:12:08;8.2;72.1
78455;SHT31;67751;51.986;5.696;2024-03-06T01:14:38;8.2;72.3
78455;SHT31;67751;51.986;5.696;2024-03-06T01:17:07;8.2;72.3
78455;SHT31;67751;51.986;5.696;2024-03-06T01:19:37;8.2;72.1
78455;SHT31;67751;51.986;5.696;2024-03-06T01:22:07;8.2;71.9
78455;SHT31;67751;51.986;5.696;2024-03-06T01:24:36;8.1;72.1
78455;SHT31;67751;51.986;5.696;2024-03-06T01:27:06;8.1;72.4
78455;SHT31;67751;51.986;5.696;2024-03-06T01:29:36;8.1;71.7
78455;SHT31;67751;51.986;5.696;2024-03-06T01:32:08;8.1;72.0
78455;SHT31;67751;51.986;5.696;2024-03-06T01:34:37;8.1;71.8
78455;SHT31;67751;51.986;5.696;2024-03-06T01:37:07;8.1;71.8
78455;SHT31;67751;51.986;5.696;2024-03-06T01:39:37;8.1;71.9
78455;SHT31;67751;51.986;5.696;2024-03-06T01:42:07;8.0;72.0
78455;SHT31;67751;51.986;5.696;2024-03-06T01:44:37;8.0;71.8
78455;SHT31;67751;51.986;5.696;2024-03-06T01:47:06;8.0;72.0
78455;SHT31;67751;51.986;5.696;2024-03-06T01:49:36;8.0;72.4
78455;SHT31;67751;51.986;5.696;2024-03-06T01:52:07;7.9;72.0
78455;SHT31;67751;51.986;5.696;2024-03-06T01:54:40;7.9;72.5
78455;SHT31;67751;51.986;5.696;2024-03-06T01:57:11;7.9;72.2
78455;SHT31;67751;51.986;5.696;2024-03-06T01:59:42;7.9;72.1
78455;SHT31;67751;51.986;5.696;2024-03-06T02:02:12;7.9;72.7
78455;SHT31;67751;51.986;5.696;2024-03-06T02:04:42;7.8;72.2
78455;SHT31;67751;51.986;5.696;2024-03-06T02:07:16;7.8;72.2
78455;SHT31;67751;51.986;5.696;2024-03-06T02:09:47;7.8;72.1
78455;SHT31;67751;51.986;5.696;2024-03-06T02:12:18;7.8;72.5
78455;SHT31;67751;51.986;5.696;2024-03-06T02:14:49;7.8;72.7
78455;SHT31;67751;51.986;5.696;2024-03-06T02:17:21;7.8;72.5
78455;SHT31;67751;51.986;5.696;2024-03-06T02:19:53;7.8;72.0
78455;SHT31;67751;51.986;5.696;2024-03-06T02:22:23;7.8;72.3
78455;SHT31;67751;51.986;5.696;2024-03-06T02:24:55;7.8;72.7
78455;SHT31;67751;51.986;5.696;2024-03-06T02:27:24;7.8;72.9
78455;SHT31;67751;51.986;5.696;2024-03-06T02:29:54;7.8;72.3
78455;SHT31;67751;51.986;5.696;2024-03-06T02:32:24;7.8;72.1
78455;SHT31;67751;51.986;5.696;2024-03-06T02:34:53;7.7;72.2
78455;SHT31;67751;51.986;5.696;2024-03-06T02:37:23;7.7;72.6
78455;SHT31;67751;51.986;5.696;2024-03-06T02:39:53;7.7;72.3
78455;SHT31;67751;51.986;5.696;2024-03-06T02:42:22;7.7;72.1
78455;SHT31;67751;51.986;5.696;2024-03-06T02:44:52;7.7;72.3
78455;SHT31;67751;51.986;5.696;2024-03-06T02:47:21;7.6;72.6
78455;SHT31;67751;51.986;5.696;2024-03-06T02:49:51;7.6;72.8
78455;SHT31;67751;51.986;5.696;2024-03-06T02:52:21;7.6;73.2
78455;SHT31;67751;51.986;5.696;2024-03-06T02:54:51;7.6;72.7
78455;SHT31;67751;51.986;5.696;2024-03-06T02:57:21;7.6;72.9
78455;SHT31;67751;51.986;5.696;2024-03-06T02:59:51;7.6;72.7
78455;SHT31;67751;51.986;5.696;2024-03-06T03:02:21;7.6;72.3
78455;SHT31;67751;51.986;5.696;2024-03-06T03:04:51;7.6;72.4
78455;SHT31;67751;51.986;5.696;2024-03-06T03:07:23;7.5;72.6
78455;SHT31;67751;51.986;5.696;2024-03-06T03:09:54;7.5;72.8
78455;SHT31;67751;51.986;5.696;2024-03-06T03:12:24;7.5;73.0
78455;SHT31;67751;51.986;5.696;2024-03-06T03:14:53;7.5;72.9
78455;SHT31;67751;51.986;5.696;2024-03-06T03:17:23;7.4;73.1
78455;SHT31;67751;51.986;5.696;2024-03-06T03:19:53;7.4;73.6
78455;SHT31;67751;51.986;5.696;2024-03-06T03:22:22;7.4;73.8
78455;SHT31;67751;51.986;5.696;2024-03-06T03:24:52;7.4;73.4
78455;SHT31;67751;51.986;5.696;2024-03-06T03:27:22;7.4;73.3
78455;SHT31;67751;51.986;5.696;2024-03-06T03:29:51;7.4;72.7
78455;SHT31;67751;51.986;5.696;2024-03-06T03:32:21;7.4;72.8
78455;SHT31;67751;51.986;5.696;2024-03-06T03:34:50;7.4;72.7
78455;SHT31;67751;51.986;5.696;2024-03-06T03:37:23;7.4;72.7
78455;SHT31;67751;51.986;5.696;2024-03-06T03:39:53;7.4;73.1
78455;SHT31;67751;51.986;5.696;2024-03-06T03:42:23;7.3;72.9
78455;SHT31;67751;51.986;5.696;2024-03-06T03:44:53;7.3;73.0
78455;SHT31;67751;51.986;5.696;2024-03-06T03:47:24;7.3;73.2
78455;SHT31;67751;51.986;5.696;2024-03-06T03:49:54;7.3;73.5
78455;SHT31;67751;51.986;5.696;2024-03-06T03:52:25;7.3;73.5
78455;SHT31;67751;51.986;5.696;2024-03-06T03:54:55;7.3;73.4
78455;SHT31;67751;51.986;5.696;2024-03-06T03:57:25;7.4;73.1
78455;SHT31;67751;51.986;5.696;2024-03-06T03:59:55;7.4;73.2
78455;SHT31;67751;51.986;5.696;2024-03-06T04:02:25;7.4;72.6
78455;SHT31;67751;51.986;5.696;2024-03-06T04:04:54;7.4;72.2
78455;SHT31;67751;51.986;5.696;2024-03-06T04:07:24;7.4;72.1
78455;SHT31;67751;51.986;5.696;2024-03-06T04:09:53;7.4;72.4
78455;SHT31;67751;51.986;5.696;2024-03-06T04:12:23;7.4;72.1
78455;SHT31;67751;51.986;5.696;2024-03-06T04:14:52;7.4;71.9
78455;SHT31;67751;51.986;5.696;2024-03-06T04:17:22;7.3;72.1
78455;SHT31;67751;51.986;5.696;2024-03-06T04:19:52;7.3;71.9
78455;SHT31;67751;51.986;5.696;2024-03-06T04:22:23;7.3;72.3
78455;SHT31;67751;51.986;5.696;2024-03-06T04:24:53;7.3;72.1
78455;SHT31;67751;51.986;5.696;2024-03-06T04:27:23;7.3;72.0
78455;SHT31;67751;51.986;5.696;2024-03-06T04:29:53;7.3;71.9
78455;SHT31;67751;51.986;5.696;2024-03-06T04:32:22;7.2;71.9
78455;SHT31;67751;51.986;5.696;2024-03-06T04:34:52;7.2;72.2
78455;SHT31;67751;51.986;5.696;2024-03-06T04:37:23;7.2;72.3
78455;SHT31;67751;51.986;5.696;2024-03-06T04:39:54;7.2;72.4
78455;SHT31;67751;51.986;5.696;2024-03-06T04:42:23;7.2;72.3
78455;SHT31;67751;51.986;5.696;2024-03-06T04:44:53;7.1;72.5
78455;SHT31;67751;51.986;5.696;2024-03-06T04:47:23;7.1;72.7
78455;SHT31;67751;51.986;5.696;2024-03-06T04:49:53;7.1;73.1
78455;SHT31;67751;51.986;5.696;2024-03-06T04:52:23;7.0;72.8
78455;SHT31;67751;51.986;5.696;2024-03-06T04:54:52;7.0;72.7
78455;SHT31;67751;51.986;5.696;2024-03-06T04:57:22;7.0;73.1
78455;SHT31;67751;51.986;5.696;2024-03-06T04:59:51;7.0;73.6
78455;SHT31;67751;51.986;5.696;2024-03-06T05:02:21;7.0;73.6
78455;SHT31;67751;51.986;5.696;2024-03-06T05:04:50;7.0;73.7
78455;SHT31;67751;51.986;5.696;2024-03-06T05:07:20;7.0;73.5
78455;SHT31;67751;51.986;5.696;2024-03-06T05:09:50;7.0;73.5
78455;SHT31;67751;51.986;5.696;2024-03-06T05:12:19;7.0;73.8
78455;SHT31;67751;51.986;5.696;2024-03-06T05:14:49;7.0;73.9
78455;SHT31;67751;51.986;5.696;2024-03-06T05:17:19;7.0;73.8
78455;SHT31;67751;51.986;5.696;2024-03-06T05:19:49;7.0;73.9
78455;SHT31;67751;51.986;5.696;2024-03-06T05:22:19;7.0;74.0
78455;SHT31;67751;51.986;5.696;2024-03-06T05:24:48;7.0;73.8
78455;SHT31;67751;51.986;5.696;2024-03-06T05:27:18;7.0;73.7
78455;SHT31;67751;51.986;5.696;2024-03-06T05:29:49;7.0;73.4
78455;SHT31;67751;51.986;5.696;2024-03-06T05:32:20;7.0;73.7
78455;SHT31;67751;51.986;5.696;2024-03-06T05:34:49;7.0;73.7
78455;SHT31;67751;51.986;5.696;2024-03-06T05:37:19;6.9;73.8
78455;SHT31;67751;51.986;5.696;2024-03-06T05:39:49;6.9;73.8
78455;SHT31;67751;51.986;5.696;2024-03-06T05:42:18;6.9;74.1
78455;SHT31;67751;51.986;5.696;2024-03-06T05:44:48;6.9;74.3
78455;SHT31;67751;51.986;5.696;2024-03-06T05:47:21;6.9;74.3
78455;SHT31;67751;51.986;5.696;2024-03-06T05:49:50;6.9;74.1
78455;SHT31;67751;51.986;5.696;2024-03-06T05:52:20;6.9;74.0
78455;SHT31;67751;51.986;5.696;2024-03-06T05:54:50;6.9;73.7
78455;SHT31;67751;51.986;5.696;2024-03-06T05:57:20;6.9;73.7
78455;SHT31;67751;51.986;5.696;2024-03-06T05:59:50;6.9;73.5
78455;SHT31;67751;51.986;5.696;2024-03-06T06:02:19;6.9;73.5
78455;SHT31;67751;51.986;5.696;2024-03-06T06:04:50;6.9;73.2
78455;SHT31;67751;51.986;5.696;2024-03-06T06:07:19;6.9;73.3
78455;SHT31;67751;51.986;5.696;2024-03-06T06:09:49;6.9;73.3
78455;SHT31;67751;51.986;5.696;2024-03-06T06:12:18;6.9;73.7
78455;SHT31;67751;51.986;5.696;2024-03-06T06:14:48;6.8;73.7
78455;SHT31;67751;51.986;5.696;2024-03-06T06:17:17;6.8;73.8
78455;SHT31;67751;51.986;5.696;2024-03-06T06:19:48;6.9;73.8
78455;SHT31;67751;51.986;5.696;2024-03-06T06:22:17;6.9;74.0
78455;SHT31;67751;51.986;5.696;2024-03-06T06:24:47;6.9;74.2
78455;SHT31;67751;51.986;5.696;2024-03-06T06:27:17;6.9;74.5
78455;SHT31;67751;51.986;5.696;2024-03-06T06:29:46;6.9;74.9
78455;SHT31;67751;51.986;5.696;2024-03-06T06:32:16;6.9;75.0
78455;SHT31;67751;51.986;5.696;2024-03-06T06:34:46;7.0;75.3
78455;SHT31;67751;51.986;5.696;2024-03-06T06:37:15;7.0;75.1
78455;SHT31;67751;51.986;5.696;2024-03-06T06:39:46;7.1;75.1
78455;SHT31;67751;51.986;5.696;2024-03-06T06:42:16;7.1;75.4
78455;SHT31;67751;51.986;5.696;2024-03-06T06:44:46;7.1;75.1
78455;SHT31;67751;51.986;5.696;2024-03-06T06:47:16;7.2;74.8
78455;SHT31;67751;51.986;5.696;2024-03-06T06:49:45;7.2;74.8
78455;SHT31;67751;51.986;5.696;2024-03-06T06:52:15;7.2;75.0
78455;SHT31;67751;51.986;5.696;2024-03-06T06:54:45;7.2;74.8
78455;SHT31;67751;51.986;5.696;2024-03-06T06:57:16;7.3;74.9
78455;SHT31;67751;51.986;5.696;2024-03-06T06:59:45;7.3;75.0
78455;SHT31;67751;51.986;5.696;2024-03-06T07:02:15;7.3;75.3
78455;SHT31;67751;51.986;5.696;2024-03-06T07:04:44;7.4;75.1
78455;SHT31;67751;51.986;5.696;2024-03-06T07:07:16;7.4;75.4
78455;SHT31;67751;51.986;5.696;2024-03-06T07:09:45;7.4;75.5
78455;SHT31;67751;51.986;5.696;2024-03-06T07:12:16;7.5;75.4
78455;SHT31;67751;51.986;5.696;2024-03-06T07:14:46;7.5;75.5
78455;SHT31;67751;51.986;5.696;2024-03-06T07:17:15;7.5;75.6
78455;SHT31;67751;51.986;5.696;2024-03-06T07:19:45;7.6;76.1
78455;SHT31;67751;51.986;5.696;2024-03-06T07:22:15;7.6;76.5
78455;SHT31;67751;51.986;5.696;2024-03-06T07:24:44;7.6;76.3
78455;SHT31;67751;51.986;5.696;2024-03-06T07:27:14;7.6;76.3
78455;SHT31;67751;51.986;5.696;2024-03-06T07:29:45;7.7;76.2
78455;SHT31;67751;51.986;5.696;2024-03-06T07:32:15;7.7;76.1
78455;SHT31;67751;51.986;5.696;2024-03-06T07:34:45;7.7;76.2
78455;SHT31;67751;51.986;5.696;2024-03-06T07:37:14;7.7;75.9
78455;SHT31;67751;51.986;5.696;2024-03-06T07:39:44;7.8;75.7
78455;SHT31;67751;51.986;5.696;2024-03-06T07:42:14;7.8;76.0
78455;SHT31;67751;51.986;5.696;2024-03-06T07:44:45;7.8;75.5
78455;SHT31;67751;51.986;5.696;2024-03-06T07:47:15;7.8;75.1
78455;SHT31;67751;51.986;5.696;2024-03-06T07:49:44;7.8;75.2
78455;SHT31;67751;51.986;5.696;2024-03-06T07:52:14;7.8;75.6
78455;SHT31;67751;51.986;5.696;2024-03-06T07:54:46;7.8;75.6
78455;SHT31;67751;51.986;5.696;2024-03-06T07:57:15;7.8;76.0
78455;SHT31;67751;51.986;5.696;2024-03-06T07:59:45;7.8;76.1
78455;SHT31;67751;51.986;5.696;2024-03-06T08:02:15;7.8;76.2
78455;SHT31;67751;51.986;5.696;2024-03-06T08:04:45;7.8;76.1
78455;SHT31;67751;51.986;5.696;2024-03-06T08:07:17;7.8;76.4
78455;SHT31;67751;51.986;5.696;2024-03-06T08:09:47;7.9;76.7
78455;SHT31;67751;51.986;5.696;2024-03-06T08:12:17;7.9;76.6
78455;SHT31;67751;51.986;5.696;2024-03-06T08:14:46;7.9;76.3
78455;SHT31;67751;51.986;5.696;2024-03-06T08:17:16;7.9;76.5
78455;SHT31;67751;51.986;5.696;2024-03-06T08:19:45;7.9;76.6
78455;SHT31;67751;51.986;5.696;2024-03-06T08:22:15;7.9;76.8
78455;SHT31;67751;51.986;5.696;2024-03-06T08:24:45;7.9;76.8
78455;SHT31;67751;51.986;5.696;2024-03-06T08:27:15;7.9;77.1
78455;SHT31;67751;51.986;5.696;2024-03-06T08:29:45;7.9;77.1
78455;SHT31;67751;51.986;5.696;2024-03-06T08:32:16;8.0;77.3
78455;SHT31;67751;51.986;5.696;2024-03-06T08:34:45;8.0;77.5
78455;SHT31;67751;51.986;5.696;2024-03-06T08:37:15;8.0;77.4
78455;SHT31;67751;51.986;5.696;2024-03-06T08:39:44;8.1;77.2
78455;SHT31;67751;51.986;5.696;2024-03-06T08:42:15;8.1;77.2
78455;SHT31;67751;51.986;5.696;2024-03-06T08:44:46;8.1;77.2
78455;SHT31;67751;51.986;5.696;2024-03-06T08:47:15;8.1;77.6
78455;SHT31;67751;51.986;5.696;2024-03-06T08:49:45;8.2;77.8
78455;SHT31;67751;51.986;5.696;2024-03-06T08:52:15;8.2;78.1
78455;SHT31;67751;51.986;5.696;2024-03-06T08:54:45;8.2;77.7
78455;SHT31;67751;51.986;5.696;2024-03-06T08:57:15;8.3;77.7
78455;SHT31;67751;51.986;5.696;2024-03-06T08:59:44;8.3;77.9
78455;SHT31;67751;51.986;5.696;2024-03-06T09:02:16;8.3;77.8
78455;SHT31;67751;51.986;5.696;2024-03-06T09:04:46;8.3;77.9
78455;SHT31;67751;51.986;5.696;2024-03-06T09:07:16;8.3;78.2
78455;SHT31;67751;51.986;5.696;2024-03-06T09:09:46;8.4;78.3
78455;SHT31;67751;51.986;5.696;2024-03-06T09:12:16;8.4;77.9
78455;SHT31;67751;51.986;5.696;2024-03-06T09:14:46;8.4;78.0
78455;SHT31;67751;51.986;5.696;2024-03-06T09:17:16;8.4;78.3
78455;SHT31;67751;51.986;5.696;2024-03-06T09:19:45;8.5;78.3
78455;SHT31;67751;51.986;5.696;2024-03-06T09:22:15;8.5;78.2
78455;SHT31;67751;51.986;5.696;2024-03-06T09:24:45;8.5;78.3
78455;SHT31;67751;51.986;5.696;2024-03-06T09:27:16;8.6;78.8
78455;SHT31;67751;51.986;5.696;2024-03-06T09:29:46;8.6;78.6
78455;SHT31;67751;51.986;5.696;2024-03-06T09:32:15;8.6;78.8
78455;SHT31;67751;51.986;5.696;2024-03-06T09:34:46;8.6;79.4
78455;SHT31;67751;51.986;5.696;2024-03-06T09:37:19;8.7;79.2
78455;SHT31;67751;51.986;5.696;2024-03-06T09:39:48;8.7;79.7
78455;SHT31;67751;51.986;5.696;2024-03-06T09:42:18;8.7;79.6
78455;SHT31;67751;51.986;5.696;2024-03-06T09:44:48;8.8;79.4
78455;SHT31;67751;51.986;5.696;2024-03-06T09:47:21;8.8;79.7
78455;SHT31;67751;51.986;5.696;2024-03-06T09:49:53;8.9;79.8
78455;SHT31;67751;51.986;5.696;2024-03-06T09:52:24;8.9;79.8
78455;SHT31;67751;51.986;5.696;2024-03-06T09:54:56;8.9;79.8
78455;SHT31;67751;51.986;5.696;2024-03-06T09:57:26;9.0;79.6
78455;SHT31;67751;51.986;5.696;2024-03-06T09:59:56;9.0;78.9
78455;SHT31;67751;51.986;5.696;2024-03-06T10:02:34;9.1;78.8
78455;SHT31;67751;51.986;5.696;2024-03-06T10:05:05;9.1;78.9
78455;SHT31;67751;51.986;5.696;2024-03-06T10:07:35;9.1;79.6
78455;SHT31;67751;51.986;5.696;2024-03-06T10:10:06;9.1;79.7
78455;SHT31;67751;51.986;5.696;2024-03-06T10:12:40;9.2;79.3
78455;SHT31;67751;51.986;5.696;2024-03-06T10:15:12;9.2;79.2
78455;SHT31;67751;51.986;5.696;2024-03-06T10:17:42;9.2;79.2
78455;SHT31;67751;51.986;5.696;2024-03-06T10:20:20;9.3;79.2
78455;SHT31;67751;51.986;5.696;2024-03-06T10:22:53;9.3;78.7
78455;SHT31;67751;51.986;5.696;2024-03-06T10:25:24;9.3;78.6
78455;SHT31;67751;51.986;5.696;2024-03-06T10:28:07;9.4;79.0
78455;SHT31;67751;51.986;5.696;2024-03-06T10:30:39;9.4;78.9
78455;SHT31;67751;51.986;5.696;2024-03-06T10:33:11;9.4;78.9
78455;SHT31;67751;51.986;5.696;2024-03-06T10:35:43;9.5;78.4
78455;SHT31;67751;51.986;5.696;2024-03-06T10:38:16;9.5;78.0
78455;SHT31;67751;51.986;5.696;2024-03-06T10:40:50;9.5;77.9
78455;SHT31;67751;51.986;5.696;2024-03-06T10:43:23;9.5;77.0
78455;SHT31;67751;51.986;5.696;2024-03-06T10:46:00;9.5;77.1
78455;SHT31;67751;51.986;5.696;2024-03-06T10:48:33;9.5;76.8
78455;SHT31;67751;51.986;5.696;2024-03-06T10:51:06;9.5;77.3
78455;SHT31;67751;51.986;5.696;2024-03-06T10:53:38;9.4;77.1
78455;SHT31;67751;51.986;5.696;2024-03-06T10:56:10;9.4;77.5
78455;SHT31;67751;51.986;5.696;2024-03-06T10:58:42;9.4;78.3
78455;SHT31;67751;51.986;5.696;2024-03-06T11:01:14;9.4;78.2
78455;SHT31;67751;51.986;5.696;2024-03-06T11:03:46;9.4;77.2
78455;SHT31;67751;51.986;5.696;2024-03-06T11:06:19;9.4;77.6
78455;SHT31;67751;51.986;5.696;2024-03-06T11:08:49;9.4;77.4
78455;SHT31;67751;51.986;5.696;2024-03-06T11:11:23;9.5;78.2
78455;SHT31;67751;51.986;5.696;2024-03-06T11:14:00;9.5;79.0
78455;SHT31;67751;51.986;5.696;2024-03-06T11:16:31;9.5;78.5
78455;SHT31;67751;51.986;5.696;2024-03-06T11:19:08;9.5;78.2
78455;SHT31;67751;51.986;5.696;2024-03-06T11:21:47;9.6;77.9
78455;SHT31;67751;51.986;5.696;2024-03-06T11:24:21;9.6;77.6
78455;SHT31;67751;51.986;5.696;2024-03-06T11:26:57;9.6;78.5
78455;SHT31;67751;51.986;5.696;2024-03-06T11:29:32;9.6;78.7
78455;SHT31;67751;51.986;5.696;2024-03-06T11:32:08;9.7;78.8
78455;SHT31;67751;51.986;5.696;2024-03-06T11:34:38;9.7;78.9
78455;SHT31;67751;51.986;5.696;2024-03-06T11:37:08;9.8;78.4
78455;SHT31;67751;51.986;5.696;2024-03-06T11:39:39;9.8;78.0
78455;SHT31;67751;51.986;5.696;2024-03-06T11:42:14;9.8;77.7
78455;SHT31;67751;51.986;5.696;2024-03-06T11:44:54;9.9;77.2
78455;SHT31;67751;51.986;5.696;2024-03-06T11:47:24;9.9;77.3
78455;SHT31;67751;51.986;5.696;2024-03-06T11:49:55;9.9;77.6
78455;SHT31;67751;51.986;5.696;2024-03-06T11:52:26;9.9;77.4
78455;SHT31;67751;51.986;5.696;2024-03-06T11:54:56;10.0;77.4
78455;SHT31;67751;51.986;5.696;2024-03-06T11:57:27;10.0;77.8
78455;SHT31;67751;51.986;5.696;2024-03-06T12:00:04;10.0;77.9
78455;SHT31;67751;51.986;5.696;2024-03-06T12:02:36;10.0;78.1
78455;SHT31;67751;51.986;5.696;2024-03-06T12:05:06;10.0;78.2
78455;SHT31;67751;51.986;5.696;2024-03-06T12:07:46;10.1;78.1
78455;SHT31;67751;51.986;5.696;2024-03-06T12:10:17;10.1;78.5
78455;SHT31;67751;51.986;5.696;2024-03-06T12:12:49;10.1;79.1
78455;SHT31;67751;51.986;5.696;2024-03-06T12:15:18;10.2;78.2
78455;SHT31;67751;51.986;5.696;2024-03-06T12:17:48;10.2;77.4
78455;SHT31;67751;51.986;5.696;2024-03-06T12:20:19;10.2;78.3
78455;SHT31;67751;51.986;5.696;2024-03-06T12:22:51;10.3;78.0
78455;SHT31;67751;51.986;5.696;2024-03-06T12:25:22;10.3;77.9
78455;SHT31;67751;51.986;5.696;2024-03-06T12:27:54;10.4;76.9
78455;SHT31;67751;51.986;5.696;2024-03-06T12:30:24;10.4;77.3
78455;SHT31;67751;51.986;5.696;2024-03-06T12:33:01;10.4;76.3
78455;SHT31;67751;51.986;5.696;2024-03-06T12:35:32;10.5;76.8
78455;SHT31;67751;51.986;5.696;2024-03-06T12:38:14;10.5;77.3
78455;SHT31;67751;51.986;5.696;2024-03-06T12:40:45;10.6;77.8
78455;SHT31;67751;51.986;5.696;2024-03-06T12:43:14;10.6;77.9
78455;SHT31;67751;51.986;5.696;2024-03-06T12:45:44;10.7;76.7
78455;SHT31;67751;51.986;5.696;2024-03-06T12:48:14;10.7;75.5
78455;SHT31;67751;51.986;5.696;2024-03-06T12:50:45;10.7;74.3
78455;SHT31;67751;51.986;5.696;2024-03-06T12:53:18;10.8;75.4
78455;SHT31;67751;51.986;5.696;2024-03-06T12:55:48;10.8;75.4
78455;SHT31;67751;51.986;5.696;2024-03-06T12:58:18;10.8;73.7
78455;SHT31;67751;51.986;5.696;2024-03-06T13:00:47;10.9;73.6
78455;SHT31;67751;51.986;5.696;2024-03-06T13:03:19;10.9;73.9
78455;SHT31;67751;51.986;5.696;2024-03-06T13:05:49;10.9;73.6
78455;SHT31;67751;51.986;5.696;2024-03-06T13:08:18;11.0;73.2
78455;SHT31;67751;51.986;5.696;2024-03-06T13:10:48;11.0;72.9
78455;SHT31;67751;51.986;5.696;2024-03-06T13:13:18;11.0;72.8
78455;SHT31;67751;51.986;5.696;2024-03-06T13:15:48;11.0;73.7
78455;SHT31;67751;51.986;5.696;2024-03-06T13:18:18;11.1;72.8
78455;SHT31;67751;51.986;5.696;2024-03-06T13:20:48;11.1;72.3
78455;SHT31;67751;51.986;5.696;2024-03-06T13:23:18;11.1;71.4
78455;SHT31;67751;51.986;5.696;2024-03-06T13:25:48;11.1;71.5
78455;SHT31;67751;51.986;5.696;2024-03-06T13:28:17;11.2;71.8
78455;SHT31;67751;51.986;5.696;2024-03-06T13:30:48;11.2;72.0
78455;SHT31;67751;51.986;5.696;2024-03-06T13:33:19;11.2;70.3
78455;SHT31;67751;51.986;5.696;2024-03-06T13:35:48;11.3;70.1
78455;SHT31;67751;51.986;5.696;2024-03-06T13:38:18;11.3;71.3
78455;SHT31;67751;51.986;5.696;2024-03-06T13:40:48;11.3;68.6
78455;SHT31;67751;51.986;5.696;2024-03-06T13:43:19;11.3;68.4
78455;SHT31;67751;51.986;5.696;2024-03-06T13:45:51;11.4;68.7
78455;SHT31;67751;51.986;5.696;2024-03-06T13:48:21;11.4;69.5
78455;SHT31;67751;51.986;5.696;2024-03-06T13:50:51;11.4;70.1
78455;SHT31;67751;51.986;5.696;2024-03-06T13:53:21;11.4;70.8
78455;SHT31;67751;51.986;5.696;2024-03-06T13:55:51;11.5;70.7
78455;SHT31;67751;51.986;5.696;2024-03-06T13:58:25;11.5;70.8
78455;SHT31;67751;51.986;5.696;2024-03-06T14:00:54;11.5;70.0
78455;SHT31;67751;51.986;5.696;2024-03-06T14:03:24;11.6;68.9
78455;SHT31;67751;51.986;5.696;2024-03-06T14:05:54;11.6;68.3
78455;SHT31;67751;51.986;5.696;2024-03-06T14:08:24;11.6;68.8
78455;SHT31;67751;51.986;5.696;2024-03-06T14:10:54;11.6;70.1
78455;SHT31;67751;51.986;5.696;2024-03-06T14:13:25;11.7;70.1
78455;SHT31;67751;51.986;5.696;2024-03-06T14:15:55;11.7;70.4
78455;SHT31;67751;51.986;5.696;2024-03-06T14:18:27;11.7;69.4
78455;SHT31;67751;51.986;5.696;2024-03-06T14:20:57;11.8;69.4
78455;SHT31;67751;51.986;5.696;2024-03-06T14:23:26;11.8;68.9
78455;SHT31;67751;51.986;5.696;2024-03-06T14:25:57;11.8;68.7
78455;SHT31;67751;51.986;5.696;2024-03-06T14:28:26;11.9;67.7
78455;SHT31;67751;51.986;5.696;2024-03-06T14:30:56;11.9;67.1
78455;SHT31;67751;51.986;5.696;2024-03-06T14:33:26;11.9;68.1
78455;SHT31;67751;51.986;5.696;2024-03-06T14:35:56;11.9;66.6
78455;SHT31;67751;51.986;5.696;2024-03-06T14:38:26;11.9;68.3
78455;SHT31;67751;51.986;5.696;2024-03-06T14:40:55;12.0;67.8
78455;SHT31;67751;51.986;5.696;2024-03-06T14:43:25;12.0;67.2
78455;SHT31;67751;51.986;5.696;2024-03-06T14:45:55;12.0;65.7
78455;SHT31;67751;51.986;5.696;2024-03-06T14:48:24;12.0;66.3
78455;SHT31;67751;51.986;5.696;2024-03-06T14:50:54;12.0;66.7
78455;SHT31;67751;51.986;5.696;2024-03-06T14:53:24;12.0;66.9
78455;SHT31;67751;51.986;5.696;2024-03-06T14:55:55;12.0;66.9
78455;SHT31;67751;51.986;5.696;2024-03-06T14:58:26;12.0;66.5
78455;SHT31;67751;51.986;5.696;2024-03-06T15:00:56;12.0;66.1
78455;SHT31;67751;51.986;5.696;2024-03-06T15:03:27;12.0;64.0
78455;SHT31;67751;51.986;5.696;2024-03-06T15:05:57;12.0;64.8
78455;SHT31;67751;51.986;5.696;2024-03-06T15:08:27;12.0;65.9
78455;SHT31;67751;51.986;5.696;2024-03-06T15:10:57;12.0;66.2
78455;SHT31;67751;51.986;5.696;2024-03-06T15:13:26;12.0;66.2
78455;SHT31;67751;51.986;5.696;2024-03-06T15:15:58;12.0;65.8
78455;SHT31;67751;51.986;5.696;2024-03-06T15:18:27;12.0;65.9
78455;SHT31;67751;51.986;5.696;2024-03-06T15:20:59;12.0;66.2
78455;SHT31;67751;51.986;5.696;2024-03-06T15:23:29;12.0;65.9
78455;SHT31;67751;51.986;5.696;2024-03-06T15:26:00;12.0;66.2
78455;SHT31;67751;51.986;5.696;2024-03-06T15:28:29;12.0;65.9
78455;SHT31;67751;51.986;5.696;2024-03-06T15:30:59;12.0;65.5
78455;SHT31;67751;51.986;5.696;2024-03-06T15:33:31;11.9;64.8
78455;SHT31;67751;51.986;5.696;2024-03-06T15:36:03;11.9;65.0
78455;SHT31;67751;51.986;5.696;2024-03-06T15:38:32;11.9;65.6
78455;SHT31;67751;51.986;5.696;2024-03-06T15:41:02;11.9;66.2
78455;SHT31;67751;51.986;5.696;2024-03-06T15:43:32;11.9;65.6
78455;SHT31;67751;51.986;5.696;2024-03-06T15:46:02;11.9;65.2
78455;SHT31;67751;51.986;5.696;2024-03-06T15:48:31;11.9;65.3
78455;SHT31;67751;51.986;5.696;2024-03-06T15:51:04;11.9;65.6
78455;SHT31;67751;51.986;5.696;2024-03-06T15:53:36;11.9;65.7
78455;SHT31;67751;51.986;5.696;2024-03-06T15:56:06;11.9;66.2
78455;SHT31;67751;51.986;5.696;2024-03-06T15:58:37;11.9;65.9
78455;SHT31;67751;51.986;5.696;2024-03-06T16:01:07;11.9;65.7
78455;SHT31;67751;51.986;5.696;2024-03-06T16:03:37;11.9;66.7
78455;SHT31;67751;51.986;5.696;2024-03-06T16:06:07;11.9;65.9
78455;SHT31;67751;51.986;5.696;2024-03-06T16:08:38;11.9;66.9
78455;SHT31;67751;51.986;5.696;2024-03-06T16:11:08;11.9;66.4
78455;SHT31;67751;51.986;5.696;2024-03-06T16:13:38;11.9;66.6
78455;SHT31;67751;51.986;5.696;2024-03-06T16:16:08;11.8;66.8
78455;SHT31;67751;51.986;5.696;2024-03-06T16:18:38;11.8;66.9
78455;SHT31;67751;51.986;5.696;2024-03-06T16:21:07;11.8;66.9
78455;SHT31;67751;51.986;5.696;2024-03-06T16:23:37;11.8;67.8
78455;SHT31;67751;51.986;5.696;2024-03-06T16:26:07;11.8;68.4
78455;SHT31;67751;51.986;5.696;2024-03-06T16:28:37;11.7;68.5
78455;SHT31;67751;51.986;5.696;2024-03-06T16:31:07;11.7;68.5
78455;SHT31;67751;51.986;5.696;2024-03-06T16:33:36;11.7;68.5